sensor_id;sensor_type;location;lat;lon;timestamp;temperature;humidity
1686;DHT22;840;47.980;7.830;2023-03-23T00:01:14;15.20;99.90
1686;DHT22;840;47.980;7.830;2023-03-23T00:03:45;15.30;99.90
1686;DHT22;840;47.980;7.830;2023-03-23T00:06:13;15.30;99.90
1686;DHT22;840;47.980;7.830;2023-03-23T00:08:44;15.40;99.90
1686;DHT22;840;47.980;7.830;2023-03-23T00:11:15;15.40;99.90
1686;DHT22;840;47.980;7.830;2023-03-23T00:13:45;15.40;99.90
1686;DHT22;840;47.980;7.830;2023-03-23T00:16:13;15.40;99.90
1686;DHT22;840;47.980;7.830;2023-03-23T00:18:47;15.30;99.90
1686;DHT22;840;47.980;7.830;2023-03-23T00:21:15;15.30;99.90
1686;DHT22;840;47.980;7.830;2023-03-23T00:23:42;15.30;99.90
1686;DHT22;840;47.980;7.830;2023-03-23T00:26:11;15.30;99.90
1686;DHT22;840;47.980;7.830;2023-03-23T00:28:39;15.30;99.90
1686;DHT22;840;47.980;7.830;2023-03-23T00:31:08;15.30;99.90
1686;DHT22;840;47.980;7.830;2023-03-23T00:33:37;15.30;99.90
1686;DHT22;840;47.980;7.830;2023-03-23T00:36:07;15.50;99.90
1686;DHT22;840;47.980;7.830;2023-03-23T00:38:35;15.50;99.90
1686;DHT22;840;47.980;7.830;2023-03-23T00:41:03;15.70;99.90
1686;DHT22;840;47.980;7.830;2023-03-23T00:43:31;15.70;99.90
1686;DHT22;840;47.980;7.830;2023-03-23T00:46:03;15.80;99.90
1686;DHT22;840;47.980;7.830;2023-03-23T00:48:34;15.80;99.90
1686;DHT22;840;47.980;7.830;2023-03-23T00:51:02;15.90;99.80
1686;DHT22;840;47.980;7.830;2023-03-23T00:53:31;15.90;99.60
1686;DHT22;840;47.980;7.830;2023-03-23T00:55:58;16.00;99.70
1686;DHT22;840;47.980;7.830;2023-03-23T00:58:25;16.00;99.70
1686;DHT22;840;47.980;7.830;2023-03-23T01:00:52;16.10;99.30
1686;DHT22;840;47.980;7.830;2023-03-23T01:03:20;16.10;98.90
1686;DHT22;840;47.980;7.830;2023-03-23T01:05:46;16.10;98.90
1686;DHT22;840;47.980;7.830;2023-03-23T01:08:13;16.10;99.20
1686;DHT22;840;47.980;7.830;2023-03-23T01:10:41;16.20;98.80
1686;DHT22;840;47.980;7.830;2023-03-23T01:13:08;16.20;99.00
1686;DHT22;840;47.980;7.830;2023-03-23T01:15:35;16.30;98.00
1686;DHT22;840;47.980;7.830;2023-03-23T01:18:02;16.30;98.40
1686;DHT22;840;47.980;7.830;2023-03-23T01:20:30;16.40;98.00
1686;DHT22;840;47.980;7.830;2023-03-23T01:22:58;16.50;97.50
1686;DHT22;840;47.980;7.830;2023-03-23T01:25:26;16.50;97.70
1686;DHT22;840;47.980;7.830;2023-03-23T01:27:54;16.60;98.70
1686;DHT22;840;47.980;7.830;2023-03-23T01:30:21;16.60;99.20
1686;DHT22;840;47.980;7.830;2023-03-23T01:32:48;16.50;98.40
1686;DHT22;840;47.980;7.830;2023-03-23T01:35:16;16.60;98.40
1686;DHT22;840;47.980;7.830;2023-03-23T01:37:44;16.60;97.90
1686;DHT22;840;47.980;7.830;2023-03-23T01:40:13;16.60;97.80
1686;DHT22;840;47.980;7.830;2023-03-23T01:42:40;16.60;97.30
1686;DHT22;840;47.980;7.830;2023-03-23T01:45:27;16.60;97.10
1686;DHT22;840;47.980;7.830;2023-03-23T01:48:11;16.60;97.00
1686;DHT22;840;47.980;7.830;2023-03-23T01:50:46;16.60;97.20
1686;DHT22;840;47.980;7.830;2023-03-23T01:53:15;16.60;96.60
1686;DHT22;840;47.980;7.830;2023-03-23T01:55:43;16.60;96.90
1686;DHT22;840;47.980;7.830;2023-03-23T01:58:14;16.70;96.00
1686;DHT22;840;47.980;7.830;2023-03-23T02:00:43;16.70;96.20
1686;DHT22;840;47.980;7.830;2023-03-23T02:03:12;16.70;96.00
1686;DHT22;840;47.980;7.830;2023-03-23T02:05:41;16.70;96.00
1686;DHT22;840;47.980;7.830;2023-03-23T02:08:09;16.80;95.20
1686;DHT22;840;47.980;7.830;2023-03-23T02:10:40;16.80;95.20
1686;DHT22;840;47.980;7.830;2023-03-23T02:13:09;16.80;95.10
1686;DHT22;840;47.980;7.830;2023-03-23T02:15:45;16.80;95.00
1686;DHT22;840;47.980;7.830;2023-03-23T02:18:27;16.80;94.90
1686;DHT22;840;47.980;7.830;2023-03-23T02:21:20;16.80;94.80
1686;DHT22;840;47.980;7.830;2023-03-23T02:24:16;16.90;95.10
1686;DHT22;840;47.980;7.830;2023-03-23T02:26:54;16.90;94.60
1686;DHT22;840;47.980;7.830;2023-03-23T02:29:45;16.90;94.30
1686;DHT22;840;47.980;7.830;2023-03-23T02:32:27;16.90;94.60
1686;DHT22;840;47.980;7.830;2023-03-23T02:35:06;16.90;94.90
1686;DHT22;840;47.980;7.830;2023-03-23T02:37:38;16.90;94.60
1686;DHT22;840;47.980;7.830;2023-03-23T02:40:10;16.90;94.60
1686;DHT22;840;47.980;7.830;2023-03-23T02:42:41;16.90;94.40
1686;DHT22;840;47.980;7.830;2023-03-23T02:45:11;16.90;94.80
1686;DHT22;840;47.980;7.830;2023-03-23T02:47:41;16.90;94.80
1686;DHT22;840;47.980;7.830;2023-03-23T02:50:12;16.90;94.30
1686;DHT22;840;47.980;7.830;2023-03-23T02:52:42;17.00;94.30
1686;DHT22;840;47.980;7.830;2023-03-23T02:55:10;17.00;94.50
1686;DHT22;840;47.980;7.830;2023-03-23T02:57:39;17.00;94.40
1686;DHT22;840;47.980;7.830;2023-03-23T03:00:07;17.00;94.60
1686;DHT22;840;47.980;7.830;2023-03-23T03:02:37;17.00;94.70
1686;DHT22;840;47.980;7.830;2023-03-23T03:05:14;17.00;95.20
1686;DHT22;840;47.980;7.830;2023-03-23T03:07:57;17.00;94.80
1686;DHT22;840;47.980;7.830;2023-03-23T03:10:27;17.00;94.90
1686;DHT22;840;47.980;7.830;2023-03-23T03:13:00;17.00;94.90
1686;DHT22;840;47.980;7.830;2023-03-23T03:15:33;16.90;94.80
1686;DHT22;840;47.980;7.830;2023-03-23T03:18:08;16.90;94.30
1686;DHT22;840;47.980;7.830;2023-03-23T03:20:43;17.00;93.90
1686;DHT22;840;47.980;7.830;2023-03-23T03:23:13;17.00;93.60
1686;DHT22;840;47.980;7.830;2023-03-23T03:25:42;17.00;93.30
1686;DHT22;840;47.980;7.830;2023-03-23T03:28:14;17.00;93.50
1686;DHT22;840;47.980;7.830;2023-03-23T03:30:42;17.00;93.10
1686;DHT22;840;47.980;7.830;2023-03-23T03:33:10;17.10;93.30
1686;DHT22;840;47.980;7.830;2023-03-23T03:35:41;17.10;93.60
1686;DHT22;840;47.980;7.830;2023-03-23T03:38:09;17.10;93.40
1686;DHT22;840;47.980;7.830;2023-03-23T03:40:36;17.10;93.30
1686;DHT22;840;47.980;7.830;2023-03-23T03:43:04;17.10;93.00
1686;DHT22;840;47.980;7.830;2023-03-23T03:45:32;17.10;92.40
1686;DHT22;840;47.980;7.830;2023-03-23T03:47:59;17.20;92.70
1686;DHT22;840;47.980;7.830;2023-03-23T03:50:27;17.20;92.80
1686;DHT22;840;47.980;7.830;2023-03-23T03:52:55;17.20;92.20
1686;DHT22;840;47.980;7.830;2023-03-23T03:55:23;17.20;92.30
1686;DHT22;840;47.980;7.830;2023-03-23T03:57:52;17.20;92.70
1686;DHT22;840;47.980;7.830;2023-03-23T04:00:20;17.20;92.60
1686;DHT22;840;47.980;7.830;2023-03-23T04:02:49;17.20;92.50
1686;DHT22;840;47.980;7.830;2023-03-23T04:05:19;17.20;92.40
1686;DHT22;840;47.980;7.830;2023-03-23T04:07:46;17.20;92.50
1686;DHT22;840;47.980;7.830;2023-03-23T04:10:17;17.20;92.60
1686;DHT22;840;47.980;7.830;2023-03-23T04:12:45;17.20;91.50
1686;DHT22;840;47.980;7.830;2023-03-23T04:15:11;17.20;91.80
1686;DHT22;840;47.980;7.830;2023-03-23T04:17:40;17.20;92.20
1686;DHT22;840;47.980;7.830;2023-03-23T04:20:09;17.20;91.80
1686;DHT22;840;47.980;7.830;2023-03-23T04:22:41;17.20;92.10
1686;DHT22;840;47.980;7.830;2023-03-23T04:25:09;17.20;91.60
1686;DHT22;840;47.980;7.830;2023-03-23T04:27:39;17.30;91.80
1686;DHT22;840;47.980;7.830;2023-03-23T04:30:09;17.30;91.80
1686;DHT22;840;47.980;7.830;2023-03-23T04:32:37;17.30;92.10
1686;DHT22;840;47.980;7.830;2023-03-23T04:35:07;17.30;91.90
1686;DHT22;840;47.980;7.830;2023-03-23T04:37:34;17.30;91.70
1686;DHT22;840;47.980;7.830;2023-03-23T04:40:02;17.30;92.10
1686;DHT22;840;47.980;7.830;2023-03-23T04:42:32;17.30;91.80
1686;DHT22;840;47.980;7.830;2023-03-23T04:45:01;17.30;92.20
1686;DHT22;840;47.980;7.830;2023-03-23T04:47:32;17.30;92.10
1686;DHT22;840;47.980;7.830;2023-03-23T04:49:59;17.30;92.20
1686;DHT22;840;47.980;7.830;2023-03-23T04:52:27;17.30;91.70
1686;DHT22;840;47.980;7.830;2023-03-23T04:54:54;17.30;92.10
1686;DHT22;840;47.980;7.830;2023-03-23T04:57:22;17.30;92.30
1686;DHT22;840;47.980;7.830;2023-03-23T04:59:51;17.30;92.50
1686;DHT22;840;47.980;7.830;2023-03-23T05:02:19;17.30;92.40
1686;DHT22;840;47.980;7.830;2023-03-23T05:04:46;17.20;92.50
1686;DHT22;840;47.980;7.830;2023-03-23T05:07:14;17.20;92.70
1686;DHT22;840;47.980;7.830;2023-03-23T05:09:40;17.20;92.90
1686;DHT22;840;47.980;7.830;2023-03-23T05:12:09;17.20;92.80
1686;DHT22;840;47.980;7.830;2023-03-23T05:14:40;17.20;92.70
1686;DHT22;840;47.980;7.830;2023-03-23T05:17:07;17.10;93.10
1686;DHT22;840;47.980;7.830;2023-03-23T05:19:36;17.10;93.40
1686;DHT22;840;47.980;7.830;2023-03-23T05:22:03;17.10;93.30
1686;DHT22;840;47.980;7.830;2023-03-23T05:24:30;17.10;93.30
1686;DHT22;840;47.980;7.830;2023-03-23T05:26:58;17.00;93.20
1686;DHT22;840;47.980;7.830;2023-03-23T05:29:25;17.00;93.70
1686;DHT22;840;47.980;7.830;2023-03-23T05:31:55;17.00;94.00
1686;DHT22;840;47.980;7.830;2023-03-23T05:34:25;17.00;93.60
1686;DHT22;840;47.980;7.830;2023-03-23T05:36:53;16.90;93.80
1686;DHT22;840;47.980;7.830;2023-03-23T05:39:20;16.90;94.20
1686;DHT22;840;47.980;7.830;2023-03-23T05:41:48;16.90;94.10
1686;DHT22;840;47.980;7.830;2023-03-23T05:44:14;16.80;94.40
1686;DHT22;840;47.980;7.830;2023-03-23T05:46:41;16.80;94.90
1686;DHT22;840;47.980;7.830;2023-03-23T05:49:08;16.80;95.20
1686;DHT22;840;47.980;7.830;2023-03-23T05:51:35;16.80;94.60
1686;DHT22;840;47.980;7.830;2023-03-23T05:54:03;16.80;95.40
1686;DHT22;840;47.980;7.830;2023-03-23T05:56:30;16.70;95.70
1686;DHT22;840;47.980;7.830;2023-03-23T05:58:57;16.70;95.80
1686;DHT22;840;47.980;7.830;2023-03-23T06:01:24;16.70;96.00
1686;DHT22;840;47.980;7.830;2023-03-23T06:03:51;16.70;96.10
1686;DHT22;840;47.980;7.830;2023-03-23T06:06:19;16.70;95.90
1686;DHT22;840;47.980;7.830;2023-03-23T06:08:46;16.80;96.10
1686;DHT22;840;47.980;7.830;2023-03-23T06:11:15;16.70;96.50
1686;DHT22;840;47.980;7.830;2023-03-23T06:13:56;16.70;96.20
1686;DHT22;840;47.980;7.830;2023-03-23T06:16:23;16.70;96.70
1686;DHT22;840;47.980;7.830;2023-03-23T06:18:50;16.70;96.90
1686;DHT22;840;47.980;7.830;2023-03-23T06:21:17;16.70;97.50
1686;DHT22;840;47.980;7.830;2023-03-23T06:23:44;16.60;97.80
1686;DHT22;840;47.980;7.830;2023-03-23T06:26:14;16.60;98.20
1686;DHT22;840;47.980;7.830;2023-03-23T06:28:43;16.50;98.50
1686;DHT22;840;47.980;7.830;2023-03-23T06:31:10;16.50;99.00
1686;DHT22;840;47.980;7.830;2023-03-23T06:33:40;16.50;99.20
1686;DHT22;840;47.980;7.830;2023-03-23T06:36:07;16.40;99.40
1686;DHT22;840;47.980;7.830;2023-03-23T06:38:39;16.40;99.20
1686;DHT22;840;47.980;7.830;2023-03-23T06:41:06;16.40;98.70
1686;DHT22;840;47.980;7.830;2023-03-23T06:43:35;16.40;99.00
1686;DHT22;840;47.980;7.830;2023-03-23T06:46:04;16.40;98.70
1686;DHT22;840;47.980;7.830;2023-03-23T06:48:31;16.40;98.90
1686;DHT22;840;47.980;7.830;2023-03-23T06:50:58;16.40;99.10
1686;DHT22;840;47.980;7.830;2023-03-23T06:53:25;16.50;98.90
1686;DHT22;840;47.980;7.830;2023-03-23T06:55:52;16.50;98.80
1686;DHT22;840;47.980;7.830;2023-03-23T06:58:19;16.40;98.60
1686;DHT22;840;47.980;7.830;2023-03-23T07:00:47;16.50;99.10
1686;DHT22;840;47.980;7.830;2023-03-23T07:03:14;16.40;99.00
1686;DHT22;840;47.980;7.830;2023-03-23T07:05:41;16.40;99.10
1686;DHT22;840;47.980;7.830;2023-03-23T07:08:12;16.40;99.00
1686;DHT22;840;47.980;7.830;2023-03-23T07:10:39;16.40;99.00
1686;DHT22;840;47.980;7.830;2023-03-23T07:13:06;16.30;98.80
1686;DHT22;840;47.980;7.830;2023-03-23T07:15:33;16.30;99.30
1686;DHT22;840;47.980;7.830;2023-03-23T07:18:01;16.40;99.10
1686;DHT22;840;47.980;7.830;2023-03-23T07:20:28;16.30;99.60
1686;DHT22;840;47.980;7.830;2023-03-23T07:22:55;16.30;99.40
1686;DHT22;840;47.980;7.830;2023-03-23T07:25:22;16.40;99.90
1686;DHT22;840;47.980;7.830;2023-03-23T07:27:50;16.30;99.90
1686;DHT22;840;47.980;7.830;2023-03-23T07:30:16;16.30;99.90
1686;DHT22;840;47.980;7.830;2023-03-23T07:32:43;16.30;99.90
1686;DHT22;840;47.980;7.830;2023-03-23T07:35:11;16.30;99.90
1686;DHT22;840;47.980;7.830;2023-03-23T07:37:38;16.20;99.90
1686;DHT22;840;47.980;7.830;2023-03-23T07:40:06;16.20;99.90
1686;DHT22;840;47.980;7.830;2023-03-23T07:42:41;16.10;99.90
1686;DHT22;840;47.980;7.830;2023-03-23T07:45:10;16.00;99.90
1686;DHT22;840;47.980;7.830;2023-03-23T07:47:37;15.90;99.90
1686;DHT22;840;47.980;7.830;2023-03-23T07:50:05;15.80;99.90
1686;DHT22;840;47.980;7.830;2023-03-23T07:52:34;15.80;99.90
1686;DHT22;840;47.980;7.830;2023-03-23T07:55:02;15.70;99.90
1686;DHT22;840;47.980;7.830;2023-03-23T07:57:30;15.60;99.90
1686;DHT22;840;47.980;7.830;2023-03-23T07:59:59;15.50;99.90
1686;DHT22;840;47.980;7.830;2023-03-23T08:02:28;15.50;99.90
1686;DHT22;840;47.980;7.830;2023-03-23T08:04:57;15.50;99.90
1686;DHT22;840;47.980;7.830;2023-03-23T08:07:26;15.40;99.90
1686;DHT22;840;47.980;7.830;2023-03-23T08:09:54;15.40;99.90
1686;DHT22;840;47.980;7.830;2023-03-23T08:12:21;15.30;99.90
1686;DHT22;840;47.980;7.830;2023-03-23T08:14:48;15.30;99.90
1686;DHT22;840;47.980;7.830;2023-03-23T08:17:14;15.20;99.90
1686;DHT22;840;47.980;7.830;2023-03-23T08:19:41;15.20;99.90
1686;DHT22;840;47.980;7.830;2023-03-23T08:22:11;15.20;99.90
1686;DHT22;840;47.980;7.830;2023-03-23T08:24:39;15.20;99.90
1686;DHT22;840;47.980;7.830;2023-03-23T08:27:07;15.20;99.90
1686;DHT22;840;47.980;7.830;2023-03-23T08:29:35;15.30;99.90
1686;DHT22;840;47.980;7.830;2023-03-23T08:32:04;15.40;99.90
1686;DHT22;840;47.980;7.830;2023-03-23T08:34:31;15.40;99.90
1686;DHT22;840;47.980;7.830;2023-03-23T08:36:58;15.40;99.90
1686;DHT22;840;47.980;7.830;2023-03-23T08:39:24;15.50;99.90
1686;DHT22;840;47.980;7.830;2023-03-23T08:41:51;15.50;99.90
1686;DHT22;840;47.980;7.830;2023-03-23T08:44:19;15.60;99.90
1686;DHT22;840;47.980;7.830;2023-03-23T08:46:46;15.60;99.90
1686;DHT22;840;47.980;7.830;2023-03-23T08:49:13;15.70;99.90
1686;DHT22;840;47.980;7.830;2023-03-23T08:51:40;15.70;99.90
1686;DHT22;840;47.980;7.830;2023-03-23T08:54:07;15.70;99.90
1686;DHT22;840;47.980;7.830;2023-03-23T08:56:34;15.70;99.90
1686;DHT22;840;47.980;7.830;2023-03-23T08:59:01;15.70;99.90
1686;DHT22;840;47.980;7.830;2023-03-23T09:01:29;15.80;99.90
1686;DHT22;840;47.980;7.830;2023-03-23T09:03:57;15.80;99.90
1686;DHT22;840;47.980;7.830;2023-03-23T09:06:25;15.80;99.90
1686;DHT22;840;47.980;7.830;2023-03-23T09:08:53;15.90;99.90
1686;DHT22;840;47.980;7.830;2023-03-23T09:11:21;15.90;99.90
1686;DHT22;840;47.980;7.830;2023-03-23T09:13:48;15.90;99.90
1686;DHT22;840;47.980;7.830;2023-03-23T09:16:15;16.00;99.90
1686;DHT22;840;47.980;7.830;2023-03-23T09:18:43;16.10;99.90
1686;DHT22;840;47.980;7.830;2023-03-23T09:21:11;16.10;99.90
1686;DHT22;840;47.980;7.830;2023-03-23T09:23:43;16.30;99.90
1686;DHT22;840;47.980;7.830;2023-03-23T09:26:10;16.40;99.90
1686;DHT22;840;47.980;7.830;2023-03-23T09:28:37;16.50;99.90
1686;DHT22;840;47.980;7.830;2023-03-23T09:31:04;16.50;99.90
1686;DHT22;840;47.980;7.830;2023-03-23T09:33:31;16.60;99.90
1686;DHT22;840;47.980;7.830;2023-03-23T09:36:00;16.70;99.90
1686;DHT22;840;47.980;7.830;2023-03-23T09:38:27;16.80;99.90
1686;DHT22;840;47.980;7.830;2023-03-23T09:41:03;16.80;99.90
1686;DHT22;840;47.980;7.830;2023-03-23T09:43:55;16.90;99.90
1686;DHT22;840;47.980;7.830;2023-03-23T09:46:37;16.90;99.90
1686;DHT22;840;47.980;7.830;2023-03-23T09:49:10;16.90;99.90
1686;DHT22;840;47.980;7.830;2023-03-23T09:51:44;16.90;99.90
1686;DHT22;840;47.980;7.830;2023-03-23T09:54:19;17.00;99.90
1686;DHT22;840;47.980;7.830;2023-03-23T09:56:48;17.00;99.90
1686;DHT22;840;47.980;7.830;2023-03-23T09:59:20;17.00;99.90
1686;DHT22;840;47.980;7.830;2023-03-23T10:01:49;17.10;99.90
1686;DHT22;840;47.980;7.830;2023-03-23T10:04:28;17.20;99.90
1686;DHT22;840;47.980;7.830;2023-03-23T10:07:06;17.30;99.90
1686;DHT22;840;47.980;7.830;2023-03-23T10:09:36;17.40;99.90
1686;DHT22;840;47.980;7.830;2023-03-23T10:12:10;17.50;99.90
1686;DHT22;840;47.980;7.830;2023-03-23T10:14:52;17.50;99.90
1686;DHT22;840;47.980;7.830;2023-03-23T10:17:27;17.50;99.90
1686;DHT22;840;47.980;7.830;2023-03-23T10:20:03;17.60;99.90
1686;DHT22;840;47.980;7.830;2023-03-23T10:22:42;17.60;99.90
1686;DHT22;840;47.980;7.830;2023-03-23T10:25:16;17.70;99.90
1686;DHT22;840;47.980;7.830;2023-03-23T10:27:47;17.80;99.90
1686;DHT22;840;47.980;7.830;2023-03-23T10:30:21;18.00;99.90
1686;DHT22;840;47.980;7.830;2023-03-23T10:32:52;18.10;99.90
1686;DHT22;840;47.980;7.830;2023-03-23T10:35:24;18.20;99.90
1686;DHT22;840;47.980;7.830;2023-03-23T10:37:56;18.40;99.90
1686;DHT22;840;47.980;7.830;2023-03-23T10:40:28;18.50;99.90
1686;DHT22;840;47.980;7.830;2023-03-23T10:42:57;18.60;99.90
1686;DHT22;840;47.980;7.830;2023-03-23T10:45:26;18.70;99.90
1686;DHT22;840;47.980;7.830;2023-03-23T10:48:05;18.80;99.90
1686;DHT22;840;47.980;7.830;2023-03-23T10:50:36;18.80;99.90
1686;DHT22;840;47.980;7.830;2023-03-23T10:53:15;18.80;99.90
1686;DHT22;840;47.980;7.830;2023-03-23T10:55:43;18.80;99.90
1686;DHT22;840;47.980;7.830;2023-03-23T10:58:12;18.90;99.90
1686;DHT22;840;47.980;7.830;2023-03-23T11:00:44;18.90;99.90
1686;DHT22;840;47.980;7.830;2023-03-23T11:03:33;18.90;99.90
1686;DHT22;840;47.980;7.830;2023-03-23T11:06:03;18.90;99.90
1686;DHT22;840;47.980;7.830;2023-03-23T11:08:35;18.90;99.90
1686;DHT22;840;47.980;7.830;2023-03-23T11:11:11;18.90;99.90
1686;DHT22;840;47.980;7.830;2023-03-23T11:13:44;18.90;99.90
1686;DHT22;840;47.980;7.830;2023-03-23T11:16:22;18.80;99.90
1686;DHT22;840;47.980;7.830;2023-03-23T11:18:49;18.70;99.90
1686;DHT22;840;47.980;7.830;2023-03-23T11:21:20;18.70;99.90
1686;DHT22;840;47.980;7.830;2023-03-23T11:23:50;18.60;99.90
1686;DHT22;840;47.980;7.830;2023-03-23T11:26:21;18.70;99.90
1686;DHT22;840;47.980;7.830;2023-03-23T11:28:52;18.60;99.90
1686;DHT22;840;47.980;7.830;2023-03-23T11:31:22;18.60;99.90
1686;DHT22;840;47.980;7.830;2023-03-23T11:34:05;18.60;99.90
1686;DHT22;840;47.980;7.830;2023-03-23T11:36:37;18.50;99.90
1686;DHT22;840;47.980;7.830;2023-03-23T11:39:21;18.60;99.90
1686;DHT22;840;47.980;7.830;2023-03-23T11:41:48;18.70;99.90
1686;DHT22;840;47.980;7.830;2023-03-23T11:44:15;18.80;99.90
1686;DHT22;840;47.980;7.830;2023-03-23T11:46:50;18.90;99.90
1686;DHT22;840;47.980;7.830;2023-03-23T11:49:26;19.00;99.90
1686;DHT22;840;47.980;7.830;2023-03-23T11:52:01;19.10;99.90
1686;DHT22;840;47.980;7.830;2023-03-23T11:54:34;19.20;99.90
1686;DHT22;840;47.980;7.830;2023-03-23T11:57:06;19.20;99.90
1686;DHT22;840;47.980;7.830;2023-03-23T11:59:35;19.30;99.90
1686;DHT22;840;47.980;7.830;2023-03-23T12:02:19;19.30;99.90
1686;DHT22;840;47.980;7.830;2023-03-23T12:05:06;19.30;99.90
1686;DHT22;840;47.980;7.830;2023-03-23T12:07:46;19.30;99.90
1686;DHT22;840;47.980;7.830;2023-03-23T12:10:24;19.30;99.90
1686;DHT22;840;47.980;7.830;2023-03-23T12:12:59;19.20;99.90
1686;DHT22;840;47.980;7.830;2023-03-23T12:15:34;19.20;99.90
1686;DHT22;840;47.980;7.830;2023-03-23T12:18:13;19.10;99.90
1686;DHT22;840;47.980;7.830;2023-03-23T12:20:50;19.10;99.90
1686;DHT22;840;47.980;7.830;2023-03-23T12:23:23;19.10;99.90
1686;DHT22;840;47.980;7.830;2023-03-23T12:31:56;19.10;99.50
1686;DHT22;840;47.980;7.830;2023-03-23T12:34:35;19.10;98.80
1686;DHT22;840;47.980;7.830;2023-03-23T12:37:19;19.00;98.90
1686;DHT22;840;47.980;7.830;2023-03-23T12:39:54;18.90;99.90
1686;DHT22;840;47.980;7.830;2023-03-23T12:42:30;18.90;99.30
1686;DHT22;840;47.980;7.830;2023-03-23T12:45:06;18.90;99.90
1686;DHT22;840;47.980;7.830;2023-03-23T12:47:40;18.90;98.90
1686;DHT22;840;47.980;7.830;2023-03-23T12:50:14;18.90;99.50
1686;DHT22;840;47.980;7.830;2023-03-23T12:52:48;18.90;99.90
1686;DHT22;840;47.980;7.830;2023-03-23T12:55:21;18.80;99.40
1686;DHT22;840;47.980;7.830;2023-03-23T12:57:56;18.80;99.80
1686;DHT22;840;47.980;7.830;2023-03-23T13:00:28;18.70;99.50
1686;DHT22;840;47.980;7.830;2023-03-23T13:03:05;18.70;99.70
1686;DHT22;840;47.980;7.830;2023-03-23T13:05:37;18.60;99.90
1686;DHT22;840;47.980;7.830;2023-03-23T13:08:13;18.60;99.90
1686;DHT22;840;47.980;7.830;2023-03-23T13:10:45;18.70;99.60
1686;DHT22;840;47.980;7.830;2023-03-23T13:13:17;18.60;99.30
1686;DHT22;840;47.980;7.830;2023-03-23T13:15:54;18.60;99.90
1686;DHT22;840;47.980;7.830;2023-03-23T13:18:34;18.60;99.50
1686;DHT22;840;47.980;7.830;2023-03-23T13:21:11;18.50;99.40
1686;DHT22;840;47.980;7.830;2023-03-23T13:23:42;18.50;99.80
1686;DHT22;840;47.980;7.830;2023-03-23T13:26:13;18.50;99.60
1686;DHT22;840;47.980;7.830;2023-03-23T13:28:56;18.50;99.90
1686;DHT22;840;47.980;7.830;2023-03-23T13:31:25;18.50;99.90
1686;DHT22;840;47.980;7.830;2023-03-23T13:33:58;18.60;99.90
1686;DHT22;840;47.980;7.830;2023-03-23T13:36:29;18.60;99.90
1686;DHT22;840;47.980;7.830;2023-03-23T13:38:58;18.60;99.90
1686;DHT22;840;47.980;7.830;2023-03-23T13:41:26;18.60;99.90
1686;DHT22;840;47.980;7.830;2023-03-23T13:44:05;18.60;99.90
1686;DHT22;840;47.980;7.830;2023-03-23T13:46:33;18.60;99.90
1686;DHT22;840;47.980;7.830;2023-03-23T13:49:19;18.60;99.10
1686;DHT22;840;47.980;7.830;2023-03-23T13:52:01;18.50;99.80
1686;DHT22;840;47.980;7.830;2023-03-23T13:54:39;18.50;99.60
1686;DHT22;840;47.980;7.830;2023-03-23T13:57:25;18.60;99.90
1686;DHT22;840;47.980;7.830;2023-03-23T13:59:59;18.50;99.50
1686;DHT22;840;47.980;7.830;2023-03-23T14:02:40;18.60;98.00
1686;DHT22;840;47.980;7.830;2023-03-23T14:05:10;18.50;98.40
1686;DHT22;840;47.980;7.830;2023-03-23T14:07:53;18.50;99.10
1686;DHT22;840;47.980;7.830;2023-03-23T14:10:20;18.50;99.80
1686;DHT22;840;47.980;7.830;2023-03-23T14:12:49;18.50;99.80
1686;DHT22;840;47.980;7.830;2023-03-23T14:15:18;18.60;99.90
1686;DHT22;840;47.980;7.830;2023-03-23T14:17:45;18.50;99.10
1686;DHT22;840;47.980;7.830;2023-03-23T14:20:21;18.50;98.30
1686;DHT22;840;47.980;7.830;2023-03-23T14:22:53;18.40;98.90
1686;DHT22;840;47.980;7.830;2023-03-23T14:25:21;18.40;98.00
1686;DHT22;840;47.980;7.830;2023-03-23T14:27:51;18.30;97.50
1686;DHT22;840;47.980;7.830;2023-03-23T14:30:22;18.30;97.70
1686;DHT22;840;47.980;7.830;2023-03-23T14:32:51;18.20;98.40
1686;DHT22;840;47.980;7.830;2023-03-23T14:35:23;18.20;98.10
1686;DHT22;840;47.980;7.830;2023-03-23T14:37:50;18.20;98.20
1686;DHT22;840;47.980;7.830;2023-03-23T14:40:18;18.10;97.50
1686;DHT22;840;47.980;7.830;2023-03-23T14:42:45;18.10;98.80
1686;DHT22;840;47.980;7.830;2023-03-23T14:45:16;18.10;98.10
1686;DHT22;840;47.980;7.830;2023-03-23T14:47:46;18.00;98.40
1686;DHT22;840;47.980;7.830;2023-03-23T14:50:26;18.00;99.10
1686;DHT22;840;47.980;7.830;2023-03-23T14:52:57;18.00;98.90
1686;DHT22;840;47.980;7.830;2023-03-23T14:55:24;18.00;98.90
1686;DHT22;840;47.980;7.830;2023-03-23T14:57:54;18.00;98.90
1686;DHT22;840;47.980;7.830;2023-03-23T15:00:32;18.00;99.50
1686;DHT22;840;47.980;7.830;2023-03-23T15:03:03;18.10;99.30
1686;DHT22;840;47.980;7.830;2023-03-23T15:05:34;18.10;99.10
1686;DHT22;840;47.980;7.830;2023-03-23T15:08:06;18.10;99.00
1686;DHT22;840;47.980;7.830;2023-03-23T15:10:33;18.10;99.30
1686;DHT22;840;47.980;7.830;2023-03-23T15:13:00;18.20;99.20
1686;DHT22;840;47.980;7.830;2023-03-23T15:15:29;18.20;99.20
1686;DHT22;840;47.980;7.830;2023-03-23T15:17:57;18.30;99.80
1686;DHT22;840;47.980;7.830;2023-03-23T15:20:28;18.40;99.50
1686;DHT22;840;47.980;7.830;2023-03-23T15:22:56;18.40;99.70
1686;DHT22;840;47.980;7.830;2023-03-23T15:25:29;18.40;99.60
1686;DHT22;840;47.980;7.830;2023-03-23T15:27:58;18.50;99.90
1686;DHT22;840;47.980;7.830;2023-03-23T15:30:35;18.50;99.60
1686;DHT22;840;47.980;7.830;2023-03-23T15:33:06;18.50;99.70
1686;DHT22;840;47.980;7.830;2023-03-23T15:35:37;18.50;99.90
1686;DHT22;840;47.980;7.830;2023-03-23T15:38:15;18.50;99.90
1686;DHT22;840;47.980;7.830;2023-03-23T15:40:44;18.50;99.90
1686;DHT22;840;47.980;7.830;2023-03-23T15:43:16;18.50;99.90
1686;DHT22;840;47.980;7.830;2023-03-23T15:45:53;18.50;99.90
1686;DHT22;840;47.980;7.830;2023-03-23T15:48:21;18.50;99.70
1686;DHT22;840;47.980;7.830;2023-03-23T15:50:50;18.40;98.30
1686;DHT22;840;47.980;7.830;2023-03-23T15:53:28;18.40;98.90
1686;DHT22;840;47.980;7.830;2023-03-23T15:55:57;18.40;99.10
1686;DHT22;840;47.980;7.830;2023-03-23T15:58:24;18.40;98.40
1686;DHT22;840;47.980;7.830;2023-03-23T16:00:51;18.40;98.10
1686;DHT22;840;47.980;7.830;2023-03-23T16:03:22;18.50;97.70
1686;DHT22;840;47.980;7.830;2023-03-23T16:05:53;18.50;98.00
1686;DHT22;840;47.980;7.830;2023-03-23T16:08:22;18.50;98.00
1686;DHT22;840;47.980;7.830;2023-03-23T16:10:49;18.50;98.40
1686;DHT22;840;47.980;7.830;2023-03-23T16:13:16;18.40;97.60
1686;DHT22;840;47.980;7.830;2023-03-23T16:15:43;18.40;98.10
1686;DHT22;840;47.980;7.830;2023-03-23T16:18:17;18.40;98.00
1686;DHT22;840;47.980;7.830;2023-03-23T16:20:46;18.30;98.20
1686;DHT22;840;47.980;7.830;2023-03-23T16:23:14;18.30;98.10
1686;DHT22;840;47.980;7.830;2023-03-23T16:25:41;18.30;98.20
1686;DHT22;840;47.980;7.830;2023-03-23T16:28:10;18.30;97.90
1686;DHT22;840;47.980;7.830;2023-03-23T16:30:38;18.30;98.80
1686;DHT22;840;47.980;7.830;2023-03-23T16:33:05;18.40;98.00
1686;DHT22;840;47.980;7.830;2023-03-23T16:35:32;18.40;98.10
1686;DHT22;840;47.980;7.830;2023-03-23T16:37:59;18.40;98.20
1686;DHT22;840;47.980;7.830;2023-03-23T16:40:27;18.30;98.00
1686;DHT22;840;47.980;7.830;2023-03-23T16:42:54;18.30;98.30
1686;DHT22;840;47.980;7.830;2023-03-23T16:45:20;18.30;97.90